Time;durP1;ratioP1;P1;durP2;ratioP2;P2;SDS_P1;SDS_P2;PMS_P1;PMS_P2;Temp;Humidity;BMP_temperature;BMP_pressure;BME280_temperature;BME280_humidity;BME280_pressure;Samples;Min_cycle;Max_cycle;Signal;HPM_P1;HPM_P2
2023/05/20 00:00:14;;;;;;;15.65;6.22;;;11.90;99.90;;;;;;5052550;28;20047;-59
2023/05/20 00:02:40;;;;;;;15.15;6.35;;;11.90;99.90;;;;;;5030286;28;20038;-57
2023/05/20 00:05:06;;;;;;;15.77;6.40;;;11.90;99.90;;;;;;5059713;28;20368;-58
2023/05/20 00:07:34;;;;;;;17.75;6.10;;;11.90;99.90;;;;;;5067287;28;20035;-59
2023/05/20 00:10:00;;;;;;;11.85;4.90;;;11.80;99.90;;;;;;5070794;28;20032;-57
2023/05/20 00:12:26;;;;;;;10.43;5.28;;;11.80;99.90;;;;;;5055329;28;20402;-60
2023/05/20 00:14:52;;;;;;;13.95;5.82;;;11.80;99.90;;;;;;5070510;28;20497;-58
2023/05/20 00:17:18;;;;;;;16.45;6.05;;;11.90;99.90;;;;;;5064524;28;20044;-60
2023/05/20 00:19:47;;;;;;;12.10;5.38;;;11.80;99.90;;;;;;5069723;28;20415;-60
2023/05/20 00:22:13;;;;;;;16.65;7.03;;;11.80;99.90;;;;;;5069758;28;20114;-58
2023/05/20 00:24:38;;;;;;;14.43;5.93;;;11.80;99.90;;;;;;5069180;28;20490;-59
2023/05/20 00:27:04;;;;;;;12.48;5.47;;;11.80;99.90;;;;;;5048614;28;20028;-60
2023/05/20 00:29:30;;;;;;;15.40;5.65;;;11.80;99.90;;;;;;5042763;28;20400;-60
2023/05/20 00:31:56;;;;;;;18.60;6.75;;;11.80;99.90;;;;;;5049956;28;20538;-57
2023/05/20 00:34:21;;;;;;;16.00;5.30;;;11.80;99.90;;;;;;5053578;28;20044;-59
2023/05/20 00:36:47;;;;;;;15.18;5.68;;;11.80;99.90;;;;;;5068204;28;20122;-58
2023/05/20 00:39:13;;;;;;;16.55;6.00;;;11.70;99.90;;;;;;5052728;28;20069;-59
2023/05/20 00:41:38;;;;;;;14.70;6.53;;;11.80;99.90;;;;;;5065506;28;20418;-58
2023/05/20 00:44:04;;;;;;;16.05;6.85;;;11.70;99.90;;;;;;5049634;28;20491;-60
2023/05/20 00:46:30;;;;;;;14.00;6.10;;;11.70;99.90;;;;;;5042707;28;20115;-57
2023/05/20 00:48:56;;;;;;;12.52;5.80;;;11.70;99.90;;;;;;5068385;28;20036;-58
2023/05/20 00:51:22;;;;;;;14.32;6.43;;;11.70;99.90;;;;;;5070133;28;20052;-59
2023/05/20 00:53:48;;;;;;;13.85;6.15;;;11.70;99.90;;;;;;5073203;28;20454;-60
2023/05/20 00:56:14;;;;;;;12.50;6.55;;;11.70;99.90;;;;;;5090869;28;20051;-60
2023/05/20 00:58:40;;;;;;;16.80;6.15;;;11.70;99.90;;;;;;5064877;28;20044;-61
2023/05/20 01:01:06;;;;;;;15.63;5.82;;;11.70;99.90;;;;;;5037763;28;20510;-60
2023/05/20 01:03:32;;;;;;;15.77;7.00;;;11.60;99.90;;;;;;5056426;28;20470;-60
2023/05/20 01:05:58;;;;;;;14.43;6.60;;;11.60;99.90;;;;;;5067289;28;20373;-60
2023/05/20 01:08:24;;;;;;;19.23;7.18;;;11.60;99.90;;;;;;5066677;28;20119;-59
2023/05/20 01:11:15;;;;;;;15.48;6.80;;;11.60;99.90;;;;;;5048850;28;20487;-60
2023/05/20 01:13:45;;;;;;;17.90;7.38;;;11.60;99.90;;;;;;5050431;28;20044;-60
2023/05/20 01:16:16;;;;;;;12.57;6.22;;;11.60;99.90;;;;;;5051903;28;20040;-60
2023/05/20 01:18:43;;;;;;;14.75;6.57;;;11.60;99.90;;;;;;5060130;28;20197;-60
2023/05/20 01:21:12;;;;;;;15.48;6.93;;;11.60;99.90;;;;;;5055927;28;20074;-62
2023/05/20 01:23:39;;;;;;;12.90;6.38;;;11.60;99.90;;;;;;5066250;28;20036;-60
2023/05/20 01:26:05;;;;;;;15.82;6.38;;;11.60;99.90;;;;;;5066842;28;20051;-58
2023/05/20 01:28:37;;;;;;;15.20;6.85;;;11.50;99.90;;;;;;5047982;28;20028;-60
2023/05/20 01:31:05;;;;;;;16.83;7.25;;;11.60;99.90;;;;;;5071170;28;20573;-59
2023/05/20 01:33:34;;;;;;;18.33;7.07;;;11.50;99.90;;;;;;5049255;28;20035;-60
2023/05/20 01:36:00;;;;;;;16.08;7.22;;;11.50;99.90;;;;;;5066219;28;20048;-59
2023/05/20 01:38:26;;;;;;;15.00;7.05;;;11.50;99.90;;;;;;5072454;28;20039;-59
2023/05/20 01:40:53;;;;;;;18.48;9.00;;;11.50;99.90;;;;;;5063408;28;20386;-60
2023/05/20 01:43:20;;;;;;;17.50;7.97;;;11.50;99.90;;;;;;5079724;28;20044;-60
2023/05/20 01:45:46;;;;;;;15.00;7.30;;;11.50;99.90;;;;;;5068993;28;20055;-60
2023/05/20 01:48:12;;;;;;;16.42;7.60;;;11.40;99.90;;;;;;5069670;28;20488;-57
2023/05/20 01:50:41;;;;;;;15.50;6.22;;;11.40;99.90;;;;;;5067770;28;20027;-57
2023/05/20 01:53:08;;;;;;;15.00;7.68;;;11.40;99.90;;;;;;5068707;28;20051;-58
2023/05/20 01:55:34;;;;;;;15.10;7.82;;;11.40;99.90;;;;;;5054868;28;20546;-58
2023/05/20 01:58:01;;;;;;;15.88;6.75;;;11.40;99.90;;;;;;5084311;28;20046;-59
2023/05/20 02:00:26;;;;;;;15.57;6.70;;;11.40;99.90;;;;;;5048924;28;20082;-57
2023/05/20 02:02:52;;;;;;;16.58;7.22;;;11.30;99.90;;;;;;5063074;28;20120;-59
2023/05/20 02:05:18;;;;;;;14.60;7.13;;;11.30;99.90;;;;;;5045324;28;20033;-57
2023/05/20 02:07:44;;;;;;;14.38;7.13;;;11.30;99.90;;;;;;5052882;28;20036;-60
2023/05/20 02:10:10;;;;;;;15.98;6.97;;;11.30;99.90;;;;;;5055219;28;20043;-60
2023/05/20 02:12:35;;;;;;;13.70;6.45;;;11.30;99.90;;;;;;5070617;28;20067;-60
2023/05/20 02:15:01;;;;;;;17.80;6.90;;;11.30;99.90;;;;;;5049117;28;20078;-59
2023/05/20 02:17:34;;;;;;;18.17;7.10;;;11.30;99.90;;;;;;5069055;28;20499;-58
2023/05/20 02:27:38;;;;;;;18.20;7.22;;;11.20;99.90;;;;;;5081951;28;20113;-60
2023/05/20 02:30:20;;;;;;;11.18;6.35;;;11.20;99.90;;;;;;5064507;28;20453;-60
2023/05/20 02:32:45;;;;;;;12.95;6.80;;;11.20;99.90;;;;;;5060738;28;20041;-60
2023/05/20 02:35:11;;;;;;;14.88;7.30;;;11.20;99.90;;;;;;5067183;28;20123;-60
2023/05/20 02:37:38;;;;;;;15.32;7.38;;;11.20;99.90;;;;;;5088543;28;20070;-61
2023/05/20 02:40:05;;;;;;;15.48;7.55;;;11.20;99.90;;;;;;5050357;28;20049;-60
2023/05/20 02:42:31;;;;;;;14.32;6.80;;;11.20;99.90;;;;;;5072105;28;20032;-60
2023/05/20 02:44:57;;;;;;;12.32;7.53;;;11.20;99.90;;;;;;5053076;28;20093;-60
2023/05/20 02:47:24;;;;;;;12.50;6.85;;;11.10;99.90;;;;;;5093763;28;20036;-61
2023/05/20 02:49:50;;;;;;;13.68;6.53;;;11.10;99.90;;;;;;5074928;28;20559;-58
2023/05/20 02:52:16;;;;;;;16.08;6.93;;;11.10;99.90;;;;;;5069726;28;20059;-60
2023/05/20 02:54:42;;;;;;;16.50;8.10;;;11.20;99.90;;;;;;5067869;28;20036;-60
2023/05/20 02:57:07;;;;;;;17.25;7.25;;;11.10;99.90;;;;;;5067304;28;20049;-59
2023/05/20 02:59:33;;;;;;;12.05;6.75;;;11.10;99.90;;;;;;5053791;28;20068;-60
2023/05/20 03:01:59;;;;;;;14.98;6.75;;;11.10;99.90;;;;;;5066135;28;20115;-58
2023/05/20 03:04:25;;;;;;;12.23;6.90;;;11.10;99.90;;;;;;5068764;28;20036;-58
2023/05/20 03:06:51;;;;;;;15.20;6.60;;;11.10;99.90;;;;;;5034819;28;20047;-62
2023/05/20 03:09:20;;;;;;;10.23;5.97;;;11.10;99.90;;;;;;5062153;28;20067;-58
2023/05/20 03:11:47;;;;;;;12.90;7.03;;;11.10;99.90;;;;;;5065486;28;20036;-59
2023/05/20 03:14:12;;;;;;;13.77;6.05;;;11.10;99.90;;;;;;5079274;28;20036;-59
2023/05/20 03:16:39;;;;;;;18.23;7.70;;;11.00;99.90;;;;;;5069311;28;20035;-59
2023/05/20 03:19:04;;;;;;;11.80;6.85;;;11.10;99.90;;;;;;5056191;28;20050;-60
2023/05/20 03:21:31;;;;;;;10.55;5.55;;;11.10;99.90;;;;;;5058848;28;20248;-59
2023/05/20 03:23:56;;;;;;;11.10;5.53;;;11.00;99.90;;;;;;5067956;28;20107;-57
2023/05/20 03:26:24;;;;;;;10.73;6.10;;;11.00;99.90;;;;;;5047639;28;20074;-60
2023/05/20 03:28:50;;;;;;;10.52;6.13;;;11.00;99.90;;;;;;5054678;28;20128;-58
2023/05/20 03:31:16;;;;;;;11.55;6.30;;;11.00;99.90;;;;;;5071037;28;20123;-60
2023/05/20 03:33:42;;;;;;;16.88;5.70;;;11.00;99.90;;;;;;5081582;28;20044;-60
2023/05/20 03:36:08;;;;;;;10.32;5.43;;;11.00;99.90;;;;;;5063657;28;20048;-60
2023/05/20 03:38:33;;;;;;;15.52;6.05;;;11.00;99.90;;;;;;5069793;28;20402;-57
2023/05/20 03:40:59;;;;;;;12.07;6.07;;;11.00;99.90;;;;;;5034046;28;20123;-58
2023/05/20 03:43:26;;;;;;;9.38;5.38;;;10.90;99.90;;;;;;5076600;28;20040;-58
2023/05/20 03:45:51;;;;;;;10.95;5.45;;;10.90;99.90;;;;;;5071159;28;20040;-57
2023/05/20 03:48:17;;;;;;;10.65;5.22;;;10.90;99.90;;;;;;5067948;28;20069;-59
2023/05/20 03:50:43;;;;;;;9.48;5.30;;;10.90;99.90;;;;;;5065467;28;20291;-59
2023/05/20 03:53:08;;;;;;;9.27;5.47;;;10.90;99.90;;;;;;5055339;28;20047;-59
2023/05/20 03:55:34;;;;;;;9.32;5.20;;;11.00;99.90;;;;;;5060940;28;20047;-59
2023/05/20 03:58:00;;;;;;;7.75;4.80;;;11.00;99.90;;;;;;5051548;28;20405;-58
2023/05/20 04:00:26;;;;;;;9.10;4.70;;;11.00;99.90;;;;;;5058496;28;20101;-59
2023/05/20 04:02:52;;;;;;;10.13;4.38;;;11.00;99.90;;;;;;5066611;28;20047;-55
2023/05/20 04:05:18;;;;;;;13.52;4.93;;;10.90;99.90;;;;;;5073120;28;20072;-58
2023/05/20 04:07:44;;;;;;;7.45;4.10;;;11.00;99.90;;;;;;5069761;28;20036;-57
2023/05/20 04:10:10;;;;;;;8.25;4.38;;;10.90;99.90;;;;;;5055639;28;20036;-59
2023/05/20 04:12:37;;;;;;;6.78;3.63;;;10.90;99.90;;;;;;5051111;28;20048;-58
2023/05/20 04:15:03;;;;;;;8.45;3.67;;;10.90;99.90;;;;;;5063569;28;20086;-58
2023/05/20 04:17:29;;;;;;;6.05;3.67;;;10.90;99.90;;;;;;5066924;28;20048;-58
2023/05/20 04:19:58;;;;;;;6.30;3.08;;;11.00;99.90;;;;;;5046822;28;20514;-60
2023/05/20 04:22:27;;;;;;;5.75;3.30;;;11.00;99.90;;;;;;5058106;28;20038;-57
2023/05/20 04:24:53;;;;;;;5.53;3.47;;;11.00;99.90;;;;;;5053782;28;20090;-58
2023/05/20 04:27:20;;;;;;;5.93;3.40;;;11.00;99.90;;;;;;5041529;28;20048;-59
2023/05/20 04:29:46;;;;;;;7.07;3.08;;;11.00;99.90;;;;;;5086601;28;20040;-57
2023/05/20 04:32:13;;;;;;;5.78;2.90;;;11.00;99.90;;;;;;5070055;28;20048;-59
2023/05/20 04:34:39;;;;;;;6.70;2.78;;;11.00;99.90;;;;;;5068139;28;20036;-57
2023/05/20 04:37:08;;;;;;;8.60;3.33;;;11.00;99.90;;;;;;5066875;28;20051;-57
2023/05/20 04:39:35;;;;;;;6.38;3.10;;;11.00;99.90;;;;;;5072444;28;20507;-57
2023/05/20 04:42:01;;;;;;;5.07;2.63;;;11.00;99.90;;;;;;5064853;28;20039;-58
2023/05/20 04:44:28;;;;;;;6.03;3.25;;;11.00;99.90;;;;;;5067970;28;20051;-60
2023/05/20 04:46:56;;;;;;;5.38;2.53;;;11.00;99.90;;;;;;5061285;28;20089;-59
2023/05/20 04:49:24;;;;;;;5.80;3.17;;;11.00;99.90;;;;;;5046659;28;20399;-59
2023/05/20 04:51:51;;;;;;;6.35;3.22;;;11.00;99.90;;;;;;5047271;28;20040;-58
2023/05/20 04:54:16;;;;;;;6.72;2.80;;;11.00;99.90;;;;;;5051129;28;20418;-61
2023/05/20 04:56:43;;;;;;;5.20;2.75;;;11.00;99.90;;;;;;5069615;28;20046;-59
2023/05/20 04:59:09;;;;;;;5.20;2.90;;;11.00;99.90;;;;;;5065184;28;20068;-60
2023/05/20 05:01:36;;;;;;;7.60;3.38;;;11.00;99.90;;;;;;5036651;28;20420;-57
2023/05/20 05:04:02;;;;;;;7.15;3.33;;;11.00;99.90;;;;;;5070112;28;20028;-56
2023/05/20 05:06:28;;;;;;;4.35;2.42;;;11.00;99.90;;;;;;5069352;28;20036;-60
2023/05/20 05:08:54;;;;;;;5.82;2.75;;;11.10;99.90;;;;;;5057600;28;20127;-60
2023/05/20 05:11:20;;;;;;;9.43;2.90;;;11.10;99.90;;;;;;5057255;28;20044;-60
2023/05/20 05:13:46;;;;;;;5.80;2.60;;;11.10;99.90;;;;;;5024155;28;20044;-60
2023/05/20 05:16:11;;;;;;;7.53;3.30;;;11.20;99.90;;;;;;5066430;28;20062;-59
2023/05/20 05:18:37;;;;;;;4.47;2.45;;;11.20;99.90;;;;;;5067622;28;20036;-60
2023/05/20 05:21:04;;;;;;;7.10;3.00;;;11.20;99.90;;;;;;5064278;28;20071;-60
2023/05/20 05:23:30;;;;;;;6.65;3.85;;;11.30;99.90;;;;;;5065158;28;20078;-60
2023/05/20 05:25:56;;;;;;;5.47;2.90;;;11.30;99.90;;;;;;5029367;28;20071;-60
2023/05/20 05:28:22;;;;;;;6.68;2.45;;;11.40;99.90;;;;;;5058622;28;20118;-61
2023/05/20 05:30:48;;;;;;;7.38;2.60;;;11.40;99.90;;;;;;5064503;28;20498;-59
2023/05/20 05:33:14;;;;;;;5.95;2.80;;;11.50;99.90;;;;;;5063535;28;20044;-61
2023/05/20 05:35:43;;;;;;;6.13;2.42;;;11.50;99.90;;;;;;5063214;28;20061;-60
2023/05/20 05:38:09;;;;;;;6.68;2.53;;;11.60;99.90;;;;;;5053675;28;20032;-58
2023/05/20 05:40:35;;;;;;;6.63;2.30;;;11.70;99.90;;;;;;5066236;28;20040;-60
2023/05/20 05:43:01;;;;;;;4.75;2.50;;;11.70;99.90;;;;;;5059913;28;20028;-60
2023/05/20 05:45:26;;;;;;;4.00;2.35;;;11.80;99.90;;;;;;5067427;28;20048;-60
2023/05/20 05:47:53;;;;;;;3.55;1.83;;;11.80;99.90;;;;;;5070807;28;20097;-60
2023/05/20 05:50:19;;;;;;;5.55;2.28;;;11.80;99.90;;;;;;5081087;28;20040;-59
2023/05/20 05:52:45;;;;;;;7.45;2.40;;;11.90;99.90;;;;;;5059674;28;20472;-60
2023/05/20 05:55:11;;;;;;;6.93;2.60;;;12.00;99.90;;;;;;5067629;28;20491;-60
2023/05/20 05:57:37;;;;;;;4.63;2.30;;;12.10;99.90;;;;;;5082283;28;20070;-60
2023/05/20 06:00:04;;;;;;;3.90;2.08;;;12.10;99.90;;;;;;5066132;28;20048;-60
2023/05/20 06:02:29;;;;;;;6.65;2.83;;;12.20;99.90;;;;;;5042450;28;20041;-60
2023/05/20 06:04:55;;;;;;;4.65;2.13;;;12.30;99.90;;;;;;5058411;28;20062;-60
2023/05/20 06:07:22;;;;;;;4.28;2.08;;;12.30;99.90;;;;;;5059767;28;20137;-57
2023/05/20 06:09:48;;;;;;;4.03;1.63;;;12.30;99.90;;;;;;5065326;28;20038;-58
2023/05/20 06:12:13;;;;;;;4.60;2.40;;;12.30;99.90;;;;;;5082884;28;20044;-58
2023/05/20 06:14:39;;;;;;;7.40;1.80;;;12.20;99.90;;;;;;5065447;28;20078;-59
2023/05/20 06:17:05;;;;;;;4.95;1.98;;;12.20;99.90;;;;;;5070396;28;20063;-61
2023/05/20 06:19:30;;;;;;;5.28;2.00;;;12.30;99.90;;;;;;5062342;28;20517;-60
2023/05/20 06:21:59;;;;;;;6.75;2.38;;;12.30;99.90;;;;;;5052960;28;20399;-61
2023/05/20 06:24:25;;;;;;;4.75;1.90;;;12.40;99.90;;;;;;5068793;28;20040;-60
2023/05/20 06:26:51;;;;;;;2.72;1.60;;;12.60;99.90;;;;;;5047861;28;20466;-57
2023/05/20 06:29:20;;;;;;;4.18;1.85;;;12.80;99.90;;;;;;5062060;28;20044;-60
2023/05/20 06:31:46;;;;;;;8.20;2.20;;;13.00;99.90;;;;;;5061794;28;20077;-59
2023/05/20 06:34:11;;;;;;;3.15;1.80;;;13.20;99.90;;;;;;5062031;28;21649;-59
2023/05/20 06:36:37;;;;;;;4.18;1.90;;;13.30;99.90;;;;;;5067680;28;20035;-60
2023/05/20 06:39:05;;;;;;;4.90;1.90;;;13.50;99.90;;;;;;5062537;28;20502;-60
2023/05/20 06:41:30;;;;;;;3.83;1.80;;;13.60;99.90;;;;;;5050026;28;20063;-60
2023/05/20 06:43:56;;;;;;;5.20;1.70;;;13.70;99.90;;;;;;5052607;28;20044;-60
2023/05/20 06:46:22;;;;;;;4.50;1.65;;;13.80;99.90;;;;;;5033817;28;20351;-59
2023/05/20 06:48:48;;;;;;;4.30;1.70;;;13.90;99.90;;;;;;5067285;28;20032;-61
2023/05/20 06:51:13;;;;;;;2.33;1.33;;;14.00;99.90;;;;;;5065975;28;20051;-59
2023/05/20 06:53:39;;;;;;;3.40;1.40;;;14.10;99.90;;;;;;5064815;28;20040;-59
2023/05/20 06:56:05;;;;;;;6.50;2.20;;;14.20;99.90;;;;;;5084033;28;20411;-59
2023/05/20 06:58:31;;;;;;;2.00;1.17;;;14.20;99.90;;;;;;5049662;28;20086;-60
2023/05/20 07:00:57;;;;;;;3.58;1.10;;;14.30;99.90;;;;;;5066947;28;20521;-59
2023/05/20 07:03:23;;;;;;;1.83;1.10;;;14.40;99.90;;;;;;5086475;28;20036;-59
2023/05/20 07:05:50;;;;;;;3.38;1.10;;;14.50;99.90;;;;;;5045139;28;20042;-60
2023/05/20 07:08:15;;;;;;;3.20;1.20;;;14.60;99.90;;;;;;5071577;28;20376;-58
2023/05/20 07:10:42;;;;;;;4.88;1.35;;;14.60;99.90;;;;;;5067955;28;20100;-60
2023/05/20 07:13:07;;;;;;;6.25;1.60;;;14.60;99.90;;;;;;5054966;28;20036;-60
2023/05/20 07:15:36;;;;;;;4.90;1.40;;;14.70;99.90;;;;;;5066051;28;20109;-59
2023/05/20 07:18:02;;;;;;;6.05;1.55;;;14.70;99.90;;;;;;5074412;28;20490;-59
2023/05/20 07:20:27;;;;;;;3.22;1.40;;;14.90;99.90;;;;;;5067804;28;20036;-61
2023/05/20 07:22:59;;;;;;;4.20;1.27;;;15.00;99.90;;;;;;5067871;28;20079;-60
2023/05/20 07:25:25;;;;;;;2.80;1.50;;;15.10;99.90;;;;;;5064518;28;20055;-60
2023/05/20 07:27:51;;;;;;;2.28;1.10;;;15.20;99.90;;;;;;5050662;28;20826;-60
2023/05/20 07:30:17;;;;;;;5.40;1.58;;;15.30;99.90;;;;;;5060347;28;20071;-60
2023/05/20 07:32:42;;;;;;;3.55;1.83;;;15.40;99.90;;;;;;5066179;28;20036;-61
2023/05/20 07:35:08;;;;;;;3.47;1.40;;;15.40;99.90;;;;;;5050706;28;20044;-60
2023/05/20 07:37:34;;;;;;;3.38;1.13;;;15.50;99.90;;;;;;5058141;28;20040;-60
2023/05/20 07:40:00;;;;;;;3.00;1.40;;;15.50;99.90;;;;;;5059395;28;20111;-60
2023/05/20 07:42:26;;;;;;;5.70;1.90;;;15.50;99.90;;;;;;5058631;28;20136;-60
2023/05/20 07:44:55;;;;;;;4.00;1.55;;;15.50;99.90;;;;;;5051957;28;20322;-61
2023/05/20 07:47:20;;;;;;;2.85;1.48;;;15.60;99.90;;;;;;5043258;28;20044;-61
2023/05/20 07:49:46;;;;;;;2.90;1.30;;;15.70;99.90;;;;;;5083735;28;20138;-61
2023/05/20 07:52:12;;;;;;;7.35;1.83;;;15.90;99.90;;;;;;5084550;28;20071;-59
2023/05/20 07:54:38;;;;;;;2.70;1.45;;;16.00;99.90;;;;;;5065736;28;20385;-59
2023/05/20 07:57:04;;;;;;;3.13;1.42;;;16.10;99.90;;;;;;5065739;28;20250;-58
2023/05/20 07:59:29;;;;;;;5.78;2.03;;;16.10;99.90;;;;;;5066304;28;20079;-60
2023/05/20 08:01:55;;;;;;;3.70;1.63;;;16.10;99.90;;;;;;5027850;28;20076;-60
2023/05/20 08:04:22;;;;;;;5.53;1.73;;;16.10;99.90;;;;;;5052710;28;20115;-61
2023/05/20 08:06:48;;;;;;;4.15;1.80;;;16.30;99.90;;;;;;5050659;28;20119;-60
2023/05/20 08:09:14;;;;;;;4.30;1.48;;;16.40;99.90;;;;;;5049374;28;20040;-61
2023/05/20 08:11:39;;;;;;;7.05;1.70;;;16.50;99.90;;;;;;5066349;28;20521;-60
2023/05/20 08:14:08;;;;;;;3.72;1.85;;;16.70;99.90;;;;;;5065743;28;20104;-60
2023/05/20 08:16:35;;;;;;;2.63;1.50;;;16.70;99.90;;;;;;5051222;28;20040;-60
2023/05/20 08:19:00;;;;;;;5.97;1.73;;;16.80;99.90;;;;;;5044355;28;20119;-59
2023/05/20 08:21:29;;;;;;;4.13;1.58;;;16.90;99.90;;;;;;5065453;28;20471;-59
2023/05/20 08:23:55;;;;;;;7.43;1.67;;;16.90;99.90;;;;;;5049894;28;20043;-60
2023/05/20 08:26:21;;;;;;;4.95;1.95;;;17.10;99.90;;;;;;5065165;28;20040;-61
2023/05/20 08:28:47;;;;;;;3.83;1.80;;;17.00;99.90;;;;;;5074755;28;20039;-56
2023/05/20 08:31:13;;;;;;;5.82;2.00;;;17.00;99.70;;;;;;5030017;28;20037;-60
2023/05/20 08:33:39;;;;;;;3.92;1.75;;;17.20;99.90;;;;;;5051835;28;20035;-59
2023/05/20 08:36:48;;;;;;;3.45;1.50;;;17.20;99.90;;;;;;5063563;28;20063;-57
2023/05/20 08:39:14;;;;;;;6.10;2.00;;;17.30;99.70;;;;;;5066106;28;20062;-60
2023/05/20 08:41:40;;;;;;;3.50;1.63;;;17.30;99.90;;;;;;5039443;28;20526;-58
2023/05/20 08:44:12;;;;;;;5.00;1.88;;;17.30;99.90;;;;;;5061371;28;20043;-60
2023/05/20 08:46:39;;;;;;;9.02;1.80;;;17.40;99.50;;;;;;5062257;28;20101;-60
2023/05/20 08:49:05;;;;;;;5.25;1.58;;;17.50;99.60;;;;;;5061163;28;20039;-58
2023/05/20 08:51:35;;;;;;;6.28;1.60;;;17.60;99.20;;;;;;5046770;28;20078;-57
2023/05/20 08:54:05;;;;;;;4.53;1.95;;;17.70;99.20;;;;;;5062688;28;20083;-59
2023/05/20 08:56:32;;;;;;;4.55;1.60;;;17.80;99.20;;;;;;5044527;28;20036;-60
2023/05/20 08:58:58;;;;;;;7.70;1.67;;;17.90;98.60;;;;;;5046681;28;20376;-59
2023/05/20 09:01:24;;;;;;;5.35;1.58;;;17.90;98.90;;;;;;5066245;28;20238;-58
2023/05/20 09:03:50;;;;;;;3.22;1.40;;;18.00;99.00;;;;;;5045474;28;20579;-58
2023/05/20 09:06:20;;;;;;;4.05;1.60;;;18.00;98.90;;;;;;5046327;28;20294;-57
2023/05/20 09:08:49;;;;;;;6.30;1.60;;;18.00;99.00;;;;;;5042717;28;20123;-59
2023/05/20 09:11:15;;;;;;;3.53;1.50;;;18.10;98.70;;;;;;5071266;28;20051;-59
2023/05/20 09:13:40;;;;;;;5.20;1.50;;;18.10;98.10;;;;;;5045577;28;20041;-58
2023/05/20 09:16:10;;;;;;;5.18;1.80;;;18.10;98.10;;;;;;5060704;28;20372;-59
2023/05/20 09:18:39;;;;;;;4.28;1.42;;;18.20;97.80;;;;;;5045710;28;20059;-59
2023/05/20 09:21:05;;;;;;;6.03;1.48;;;18.30;97.60;;;;;;5084465;28;20169;-59
2023/05/20 09:23:31;;;;;;;4.80;1.80;;;18.20;97.70;;;;;;5067367;28;20065;-57
2023/05/20 09:26:01;;;;;;;4.15;1.88;;;18.40;97.70;;;;;;5048462;28;20033;-61
2023/05/20 09:28:27;;;;;;;3.08;1.35;;;18.50;97.70;;;;;;5064837;28;20386;-60
2023/05/20 09:30:59;;;;;;;4.88;1.38;;;18.50;97.50;;;;;;5080385;28;21804;-60
2023/05/20 09:33:31;;;;;;;4.18;1.42;;;18.60;97.60;;;;;;5061771;28;20039;-60
2023/05/20 09:36:04;;;;;;;4.15;1.50;;;18.70;97.90;;;;;;5048905;28;20148;-60
2023/05/20 09:38:36;;;;;;;3.13;1.40;;;18.70;97.60;;;;;;5058701;28;20043;-60
2023/05/20 09:41:12;;;;;;;4.57;1.40;;;18.90;97.60;;;;;;5064875;28;20459;-60
2023/05/20 09:43:41;;;;;;;4.95;1.70;;;18.90;97.20;;;;;;5066960;28;20068;-60
2023/05/20 09:46:08;;;;;;;4.72;1.50;;;18.90;96.90;;;;;;5065662;28;20131;-61
2023/05/20 09:48:37;;;;;;;6.10;1.45;;;18.90;97.10;;;;;;5065084;28;20036;-59
2023/05/20 09:51:04;;;;;;;5.45;1.83;;;18.90;97.40;;;;;;5044194;28;21251;-60
2023/05/20 09:53:33;;;;;;;5.78;1.52;;;19.00;97.60;;;;;;5058128;28;20052;-59
2023/05/20 09:55:59;;;;;;;3.33;1.70;;;19.10;97.60;;;;;;5042668;28;20628;-60
2023/05/20 09:58:25;;;;;;;5.63;1.88;;;19.10;97.80;;;;;;5083709;28;20114;-61
2023/05/20 10:00:52;;;;;;;3.60;1.60;;;18.80;97.70;;;;;;5059661;28;20044;-60
2023/05/20 10:03:21;;;;;;;7.68;2.10;;;18.80;97.70;;;;;;5064658;28;20503;-60
2023/05/20 10:06:13;;;;;;;5.65;2.00;;;18.80;97.70;;;;;;5064908;28;20044;-56
2023/05/20 10:09:21;;;;;;;3.97;1.65;;;18.90;97.30;;;;;;5023544;28;20040;-60
2023/05/20 10:12:05;;;;;;;8.68;2.50;;;18.90;98.00;;;;;;5018126;28;20036;-62
2023/05/20 10:15:18;;;;;;;5.82;2.05;;;19.10;97.40;;;;;;5053799;28;20252;-60
2023/05/20 10:18:00;;;;;;;5.43;2.10;;;19.10;97.10;;;;;;4977265;28;20533;-59
2023/05/20 10:20:30;;;;;;;5.38;1.77;;;19.20;97.30;;;;;;4984097;28;20042;-60
2023/05/20 10:22:57;;;;;;;5.03;2.13;;;19.20;97.20;;;;;;5032044;28;20052;-60
2023/05/20 10:25:27;;;;;;;7.32;2.05;;;19.20;97.40;;;;;;5040912;28;20040;-60
2023/05/20 10:28:06;;;;;;;5.20;1.83;;;19.30;97.30;;;;;;5064090;28;20043;-60
2023/05/20 10:30:32;;;;;;;5.50;2.10;;;19.30;97.60;;;;;;5067890;28;20064;-61
2023/05/20 10:33:04;;;;;;;4.75;2.35;;;19.50;97.20;;;;;;5063572;28;20475;-60
2023/05/20 10:35:30;;;;;;;4.88;2.50;;;19.60;97.10;;;;;;5047573;28;20038;-61
2023/05/20 10:38:09;;;;;;;6.68;2.22;;;19.60;97.30;;;;;;5061181;28;20078;-62
2023/05/20 10:40:35;;;;;;;5.25;2.60;;;19.60;96.50;;;;;;5065122;28;20041;-61
2023/05/20 10:43:15;;;;;;;9.27;2.78;;;19.40;97.40;;;;;;5048774;28;20055;-60
2023/05/20 10:45:52;;;;;;;8.02;2.40;;;19.60;97.50;;;;;;5081777;28;20138;-60
2023/05/20 10:48:24;;;;;;;6.55;2.55;;;19.60;97.30;;;;;;5063506;28;20051;-61
2023/05/20 10:50:55;;;;;;;6.82;2.35;;;19.60;97.80;;;;;;5054118;28;20494;-60
2023/05/20 10:53:23;;;;;;;5.55;2.10;;;19.80;97.10;;;;;;5044595;28;20577;-60
2023/05/20 10:55:50;;;;;;;6.72;2.47;;;19.90;97.70;;;;;;5050194;28;20058;-60
2023/05/20 10:58:18;;;;;;;8.95;2.40;;;20.00;97.10;;;;;;5086441;28;20185;-60
2023/05/20 11:00:44;;;;;;;7.45;2.88;;;19.90;97.30;;;;;;5068737;28;20036;-60
2023/05/20 11:03:11;;;;;;;6.65;2.22;;;19.90;96.90;;;;;;5049313;28;20051;-61
2023/05/20 11:05:41;;;;;;;5.68;2.47;;;20.00;97.40;;;;;;5066719;28;20735;-59
2023/05/20 11:08:08;;;;;;;8.02;3.05;;;20.10;97.30;;;;;;5066434;28;20541;-58
2023/05/20 11:10:35;;;;;;;5.75;2.33;;;20.10;97.00;;;;;;5060922;28;20104;-59
2023/05/20 11:13:02;;;;;;;8.35;2.50;;;20.10;97.50;;;;;;5026502;28;20115;-59
2023/05/20 11:15:29;;;;;;;7.13;2.65;;;20.10;97.50;;;;;;5062764;28;20040;-61
2023/05/20 11:18:00;;;;;;;6.03;2.60;;;20.30;97.70;;;;;;5063934;28;20047;-59
2023/05/20 11:20:27;;;;;;;6.57;2.63;;;20.60;97.40;;;;;;5041036;28;20044;-59
2023/05/20 11:22:53;;;;;;;7.38;2.67;;;20.60;96.70;;;;;;5051898;28;20040;-59
2023/05/20 11:25:22;;;;;;;5.05;2.00;;;20.50;97.40;;;;;;5044838;28;20040;-60
2023/05/20 11:27:49;;;;;;;6.40;2.42;;;20.70;97.40;;;;;;5057879;28;20264;-59
2023/05/20 11:30:16;;;;;;;7.70;2.53;;;20.70;96.70;;;;;;5052410;28;20043;-59
2023/05/20 11:32:59;;;;;;;6.22;2.67;;;20.70;96.70;;;;;;5063760;28;20040;-57
2023/05/20 11:35:28;;;;;;;5.38;2.75;;;20.70;96.60;;;;;;5039769;28;20325;-60
2023/05/20 11:38:06;;;;;;;5.40;2.30;;;20.60;96.80;;;;;;5062937;28;20075;-57
2023/05/20 11:40:32;;;;;;;6.05;3.33;;;20.80;96.30;;;;;;5066442;28;20338;-58
2023/05/20 11:43:00;;;;;;;6.32;2.78;;;20.80;96.20;;;;;;5053002;28;20054;-60
2023/05/20 11:45:29;;;;;;;7.78;2.58;;;20.70;96.00;;;;;;5061230;28;20094;-59
2023/05/20 11:48:05;;;;;;;7.70;2.90;;;20.70;96.40;;;;;;5062528;28;20036;-60
2023/05/20 11:50:49;;;;;;;7.72;3.00;;;20.90;96.70;;;;;;5067713;28;20323;-60
2023/05/20 11:53:19;;;;;;;;;;;20.90;96.50;;;;;;5066405;28;20055;-60
2023/05/20 11:55:51;;;;;;;6.97;2.50;;;21.00;96.50;;;;;;5050309;28;19916;-60
2023/05/20 11:58:35;;;;;;;5.50;2.50;;;20.70;96.20;;;;;;5058976;28;20052;-59
2023/05/20 12:01:01;;;;;;;7.60;2.83;;;20.70;96.50;;;;;;5044007;28;20055;-59
2023/05/20 12:03:26;;;;;;;8.00;2.75;;;20.90;96.50;;;;;;5064941;28;20048;-60
2023/05/20 12:05:52;;;;;;;6.40;2.50;;;20.90;96.20;;;;;;5049196;28;20036;-59
2023/05/20 12:08:18;;;;;;;10.80;2.95;;;21.00;96.60;;;;;;5066240;28;20056;-60
2023/05/20 12:10:44;;;;;;;7.82;2.63;;;21.10;96.40;;;;;;5058904;28;20509;-58
2023/05/20 12:13:12;;;;;;;6.07;2.90;;;21.20;95.60;;;;;;5036106;28;20101;-57
2023/05/20 12:15:38;;;;;;;4.80;2.65;;;21.00;95.60;;;;;;5029821;28;20046;-58
2023/05/20 12:18:04;;;;;;;5.40;2.30;;;21.00;95.40;;;;;;5048080;28;20051;-59
2023/05/20 12:20:33;;;;;;;7.65;3.15;;;20.70;95.90;;;;;;5077301;28;20045;-58
2023/05/20 12:23:00;;;;;;;6.47;2.80;;;20.80;96.00;;;;;;5083778;28;20036;-60
2023/05/20 12:25:26;;;;;;;6.70;2.78;;;20.70;95.20;;;;;;5075741;28;20048;-59
2023/05/20 12:27:52;;;;;;;7.85;3.08;;;20.60;95.70;;;;;;5038592;28;20071;-60
2023/05/20 12:30:19;;;;;;;6.00;2.92;;;20.60;95.90;;;;;;5048680;28;20075;-60
2023/05/20 12:32:46;;;;;;;10.45;3.10;;;20.80;96.20;;;;;;5062273;28;20483;-58
2023/05/20 12:35:12;;;;;;;8.88;2.85;;;21.10;95.90;;;;;;5059557;28;20063;-59
2023/05/20 12:37:40;;;;;;;8.95;3.00;;;20.90;95.90;;;;;;5063873;28;20445;-60
2023/05/20 12:40:07;;;;;;;7.07;2.97;;;20.80;96.10;;;;;;5063935;28;20036;-60
2023/05/20 12:42:40;;;;;;;7.43;3.30;;;21.10;96.30;;;;;;5061548;28;20032;-61
2023/05/20 12:45:08;;;;;;;8.10;2.90;;;21.10;95.70;;;;;;5082230;28;20113;-60
2023/05/20 12:47:34;;;;;;;8.30;3.25;;;21.20;96.30;;;;;;5062741;28;20040;-60
2023/05/20 12:50:03;;;;;;;8.65;3.25;;;21.40;96.50;;;;;;5064588;28;20233;-60
2023/05/20 12:52:29;;;;;;;7.82;2.80;;;21.70;96.00;;;;;;5044497;28;20039;-60